Time;durP1;ratioP1;P1;durP2;ratioP2;P2;SDS_P1;SDS_P2;PMS_P1;PMS_P2;Temp;Humidity;BMP_temperature;BMP_pressure;BME280_temperature;BME280_humidity;BME280_pressure;Samples;Min_cycle;Max_cycle;Signal;HPM_P1;HPM_P2
2021/10/08 00:00:34;;;;;;;27.97;19.40;;;14.00;99.90;;;;;;5052233;28;20169;-83
2021/10/08 00:03:00;;;;;;;26.10;19.30;;;14.00;99.90;;;;;;5051828;28;20184;-85
2021/10/08 00:05:26;;;;;;;25.93;18.80;;;14.00;99.90;;;;;;5055248;28;20177;-84
2021/10/08 00:07:52;;;;;;;27.67;18.63;;;13.90;99.90;;;;;;5055836;28;20214;-84
2021/10/08 00:10:21;;;;;;;25.97;18.20;;;13.80;99.90;;;;;;5054226;28;20649;-87
2021/10/08 00:12:48;;;;;;;23.17;17.93;;;13.70;99.90;;;;;;5054238;28;20525;-83
2021/10/08 00:15:16;;;;;;;23.27;18.50;;;13.70;99.90;;;;;;5054917;28;20580;-83
2021/10/08 00:17:42;;;;;;;23.23;17.00;;;13.70;99.90;;;;;;5056353;28;20180;-84
2021/10/08 00:20:09;;;;;;;23.03;17.73;;;13.70;99.90;;;;;;5056004;28;20188;-85
2021/10/08 00:22:35;;;;;;;25.50;17.93;;;13.70;99.90;;;;;;5055906;28;20177;-83
2021/10/08 00:25:01;;;;;;;22.03;17.63;;;13.70;99.90;;;;;;5056050;28;20185;-86
2021/10/08 00:27:30;;;;;;;20.70;16.47;;;13.70;99.90;;;;;;5056248;28;20170;-84
2021/10/08 00:29:58;;;;;;;26.43;17.27;;;13.70;99.90;;;;;;5056119;28;20169;-86
2021/10/08 00:32:24;;;;;;;22.13;16.50;;;13.60;99.90;;;;;;5054660;28;20186;-84
2021/10/08 00:34:50;;;;;;;22.17;17.13;;;13.70;99.90;;;;;;5054404;28;20268;-84
2021/10/08 00:37:16;;;;;;;20.90;17.10;;;13.80;99.90;;;;;;5055404;28;20530;-83
2021/10/08 00:40:02;;;;;;;23.67;17.67;;;13.80;99.90;;;;;;5055668;28;20176;-85
2021/10/08 00:49:42;;;;;;;21.33;16.43;;;13.50;99.90;;;;;;5013852;28;20228;-84
2021/10/08 00:56:15;;;;;;;22.23;15.13;;;13.40;99.90;;;;;;4936103;29;20215;-84
2021/10/08 00:58:50;;;;;;;22.27;15.90;;;13.50;99.90;;;;;;4861358;29;20204;-91
2021/10/08 01:01:42;;;;;;;21.17;14.30;;;13.50;99.90;;;;;;5046583;28;20192;-91
2021/10/08 01:04:13;;;;;;;18.87;15.20;;;13.50;99.90;;;;;;5045264;28;20204;-88
2021/10/08 01:06:42;;;;;;;17.80;15.90;;;13.50;99.90;;;;;;5055150;28;20181;-84
2021/10/08 01:09:08;;;;;;;17.97;15.87;;;13.50;99.90;;;;;;5055142;28;20204;-83
2021/10/08 01:11:38;;;;;;;18.93;15.33;;;13.50;99.90;;;;;;5054776;28;20196;-84
2021/10/08 01:14:14;;;;;;;19.77;16.90;;;13.50;99.90;;;;;;5054959;28;20174;-84
2021/10/08 01:16:40;;;;;;;22.77;16.63;;;13.40;99.90;;;;;;5052828;28;20649;-86
2021/10/08 01:19:29;;;;;;;20.03;17.87;;;13.40;99.90;;;;;;5054855;28;20267;-83
2021/10/08 01:22:01;;;;;;;23.27;17.63;;;13.30;99.90;;;;;;5046395;28;20544;-86
2021/10/08 01:24:27;;;;;;;22.50;17.27;;;13.10;99.90;;;;;;5054870;28;20181;-84
2021/10/08 01:26:56;;;;;;;25.83;16.70;;;13.00;99.90;;;;;;5054623;28;20633;-84
2021/10/08 01:29:22;;;;;;;21.43;15.93;;;12.80;99.90;;;;;;5055897;28;20225;-83
2021/10/08 01:31:50;;;;;;;19.90;15.80;;;12.80;99.90;;;;;;5057988;28;20653;-83
2021/10/08 01:34:16;;;;;;;20.50;15.63;;;12.60;99.90;;;;;;5053385;28;20204;-84
2021/10/08 01:36:46;;;;;;;19.23;13.83;;;12.40;99.90;;;;;;5054372;28;20550;-83
2021/10/08 01:39:44;;;;;;;18.33;14.67;;;12.30;99.90;;;;;;5053088;28;20556;-83
2021/10/08 01:42:13;;;;;;;15.83;13.60;;;12.20;99.90;;;;;;5046262;28;20197;-83
2021/10/08 01:44:40;;;;;;;19.10;13.80;;;12.10;99.90;;;;;;5054301;28;20192;-83
2021/10/08 01:47:06;;;;;;;18.80;13.67;;;12.00;99.90;;;;;;5054369;28;20173;-83
2021/10/08 01:49:44;;;;;;;22.43;14.33;;;12.10;99.90;;;;;;5052746;28;20271;-84
2021/10/08 01:52:13;;;;;;;17.67;13.60;;;12.10;99.90;;;;;;5053837;28;20188;-83
2021/10/08 01:55:29;;;;;;;18.17;14.13;;;12.10;99.90;;;;;;5059133;28;20173;-83
2021/10/08 01:58:07;;;;;;;23.37;13.67;;;11.90;99.90;;;;;;5042438;28;20192;-84
2021/10/08 02:00:33;;;;;;;21.90;13.83;;;11.80;99.90;;;;;;5065276;28;20203;-81
2021/10/08 02:02:59;;;;;;;20.33;14.03;;;11.80;99.90;;;;;;5063532;28;20173;-82
2021/10/08 02:05:27;;;;;;;17.63;13.37;;;11.80;99.90;;;;;;5057914;28;20176;-82
2021/10/08 02:07:59;;;;;;;20.53;13.80;;;11.70;99.90;;;;;;5057959;28;20207;-83
2021/10/08 02:10:41;;;;;;;19.27;14.10;;;11.70;99.90;;;;;;5058558;28;20188;-85
2021/10/08 02:19:48;;;;;;;23.47;14.57;;;11.60;99.90;;;;;;5024060;28;20325;-83
2021/10/08 02:22:56;;;;;;;21.10;14.73;;;11.70;99.90;;;;;;5018673;28;20204;-82
2021/10/08 02:32:49;;;;;;;;;;;;;;;;;;;;;
2021/10/08 02:35:16;;;;;;;21.03;15.33;;;11.50;99.90;;;;;;5012153;28;20170;-84
2021/10/08 02:37:42;;;;;;;22.73;16.33;;;11.50;99.90;;;;;;5032619;28;20178;-84
2021/10/08 02:40:09;;;;;;;22.30;16.43;;;11.50;99.90;;;;;;5061894;28;20239;-82
2021/10/08 02:42:35;;;;;;;18.70;15.80;;;11.50;99.90;;;;;;5068220;28;20184;-82
2021/10/08 02:45:01;;;;;;;18.83;15.80;;;11.50;99.90;;;;;;5054262;28;20181;-84
2021/10/08 02:47:30;;;;;;;24.07;17.13;;;11.50;99.90;;;;;;5054018;28;20205;-89
2021/10/08 02:50:03;;;;;;;22.63;17.30;;;11.40;99.90;;;;;;5053321;28;20200;-85
2021/10/08 02:52:29;;;;;;;20.73;15.67;;;11.40;99.90;;;;;;5052325;28;20585;-83
2021/10/08 02:54:55;;;;;;;20.23;16.30;;;11.30;99.90;;;;;;5053146;28;20177;-86
2021/10/08 02:57:23;;;;;;;24.93;16.30;;;11.30;99.90;;;;;;5051900;28;20201;-84
2021/10/08 02:59:51;;;;;;;20.17;15.10;;;11.30;99.90;;;;;;5053019;28;20177;-84
2021/10/08 03:02:17;;;;;;;20.57;14.60;;;11.30;99.90;;;;;;5052977;28;20169;-87
2021/10/08 03:04:47;;;;;;;18.33;14.60;;;11.30;99.90;;;;;;5053027;28;20531;-84
2021/10/08 03:07:13;;;;;;;23.00;16.20;;;11.40;99.90;;;;;;5053290;28;20165;-83
2021/10/08 03:09:45;;;;;;;19.20;15.33;;;11.30;99.90;;;;;;5052905;28;20255;-87
2021/10/08 03:12:32;;;;;;;19.20;16.30;;;11.40;99.90;;;;;;5053162;28;20173;-84
2021/10/08 03:14:58;;;;;;;20.70;16.57;;;11.40;99.90;;;;;;5052383;28;20522;-84
2021/10/08 03:17:25;;;;;;;20.90;16.57;;;11.50;99.90;;;;;;5052982;28;20169;-83
2021/10/08 03:19:51;;;;;;;20.47;16.73;;;11.50;99.90;;;;;;5052649;28;20200;-83
2021/10/08 03:22:17;;;;;;;23.90;16.93;;;11.50;99.90;;;;;;5052902;28;20199;-85
2021/10/08 03:24:43;;;;;;;19.20;15.77;;;11.60;99.90;;;;;;5051620;28;20184;-83
2021/10/08 03:27:12;;;;;;;18.77;15.97;;;11.60;99.90;;;;;;5052839;28;20169;-84
2021/10/08 03:29:49;;;;;;;23.67;15.67;;;11.60;99.90;;;;;;5051408;28;20406;-83
2021/10/08 03:32:19;;;;;;;17.90;14.80;;;11.40;99.90;;;;;;5051306;28;20180;-85
2021/10/08 03:34:45;;;;;;;20.80;15.00;;;11.20;99.90;;;;;;5052634;28;20259;-84
2021/10/08 03:37:17;;;;;;;18.63;15.40;;;11.10;99.90;;;;;;5051592;28;20286;-83
2021/10/08 03:39:48;;;;;;;23.93;14.97;;;11.00;99.90;;;;;;5047594;28;20185;-85
2021/10/08 03:43:02;;;;;;;20.27;15.10;;;11.10;99.90;;;;;;5056493;28;20173;-84
2021/10/08 03:51:41;;;;;;;19.03;14.87;;;10.90;99.90;;;;;;5014866;28;20175;-83
2021/10/08 03:57:49;;;;;;;20.47;15.90;;;10.90;99.90;;;;;;5016342;28;20193;-83
2021/10/08 04:00:26;;;;;;;20.03;16.27;;;10.90;99.90;;;;;;5056284;28;20184;-85
2021/10/08 04:03:50;;;;;;;21.87;16.07;;;10.90;99.90;;;;;;5055969;28;20253;-86
2021/10/08 04:06:56;;;;;;;19.63;15.80;;;10.90;99.90;;;;;;4944044;29;20222;-83
2021/10/08 04:23:12;;;;;;;24.03;18.73;;;10.80;99.90;;;;;;5040671;28;20176;-82
2021/10/08 04:25:58;;;;;;;28.73;18.23;;;10.60;99.90;;;;;;5051940;28;20254;-85
2021/10/08 04:28:24;;;;;;;26.63;18.07;;;10.60;99.90;;;;;;5056900;28;20291;-87
2021/10/08 04:31:43;;;;;;;23.37;18.50;;;10.50;99.90;;;;;;5055763;28;20327;-83
2021/10/08 04:34:12;;;;;;;23.40;17.53;;;10.50;99.90;;;;;;5055746;28;20260;-83
2021/10/08 04:36:40;;;;;;;26.27;18.43;;;10.30;99.90;;;;;;5055069;28;20181;-83
2021/10/08 04:39:07;;;;;;;29.50;19.10;;;10.40;99.90;;;;;;5055471;28;20219;-84
2021/10/08 04:45:23;;;;;;;28.83;18.27;;;10.40;99.90;;;;;;5013573;28;20221;-83
2021/10/08 04:47:49;;;;;;;25.83;17.47;;;10.30;99.90;;;;;;5013657;28;20685;-87
2021/10/08 04:50:17;;;;;;;30.13;19.90;;;10.20;99.90;;;;;;5051820;28;20189;-83
2021/10/08 04:52:43;;;;;;;28.00;19.23;;;10.10;99.90;;;;;;5055361;28;20197;-83
2021/10/08 04:55:10;;;;;;;29.47;19.50;;;10.10;99.90;;;;;;5055833;28;20177;-84
2021/10/08 04:57:36;;;;;;;27.07;19.40;;;10.10;99.90;;;;;;5055659;28;20516;-84
2021/10/08 05:00:08;;;;;;;27.77;19.13;;;10.00;99.90;;;;;;5054353;28;20185;-84
2021/10/08 05:02:34;;;;;;;28.53;18.23;;;10.00;99.90;;;;;;5054053;28;20173;-83
2021/10/08 05:05:02;;;;;;;30.27;20.73;;;10.00;99.90;;;;;;5055198;28;20216;-91
2021/10/08 05:07:39;;;;;;;32.23;20.80;;;10.00;99.90;;;;;;5054578;28;20389;-91
2021/10/08 05:10:05;;;;;;;29.97;20.47;;;10.00;99.90;;;;;;5056723;28;20188;-89
2021/10/08 05:12:31;;;;;;;31.50;19.90;;;10.00;99.90;;;;;;5055378;28;20196;-83
2021/10/08 05:14:57;;;;;;;26.47;18.43;;;9.90;99.90;;;;;;5055331;28;20185;-86
2021/10/08 05:17:23;;;;;;;31.10;19.97;;;9.80;99.90;;;;;;5064112;28;20291;-84
2021/10/08 05:19:49;;;;;;;24.77;18.63;;;9.80;99.90;;;;;;5068514;28;20201;-83
2021/10/08 05:22:15;;;;;;;29.97;20.53;;;9.90;99.90;;;;;;5059523;28;20188;-84
2021/10/08 05:24:44;;;;;;;31.37;19.80;;;9.90;99.90;;;;;;5058651;28;20212;-82
2021/10/08 05:27:09;;;;;;;28.00;19.40;;;10.00;99.90;;;;;;5058959;28;20244;-82
2021/10/08 05:29:35;;;;;;;27.70;19.10;;;10.00;99.90;;;;;;5069721;28;20212;-82
2021/10/08 05:32:01;;;;;;;34.53;20.57;;;10.10;99.90;;;;;;5057647;28;20188;-86
2021/10/08 05:34:27;;;;;;;26.20;19.20;;;10.00;99.90;;;;;;5055970;28;20177;-85
2021/10/08 05:36:55;;;;;;;27.67;17.77;;;10.00;99.90;;;;;;5061678;28;20181;-84
2021/10/08 05:39:24;;;;;;;30.27;20.30;;;9.80;99.90;;;;;;5076983;28;20177;-80
2021/10/08 05:41:51;;;;;;;29.63;20.23;;;9.80;99.90;;;;;;5059754;28;20207;-82
2021/10/08 05:44:18;;;;;;;30.00;20.80;;;9.80;99.90;;;;;;5056964;28;20239;-83
2021/10/08 05:47:22;;;;;;;31.03;21.83;;;9.70;99.90;;;;;;5054328;28;20181;-85
2021/10/08 05:49:57;;;;;;;35.30;20.93;;;9.70;99.90;;;;;;5063441;28;20188;-82
2021/10/08 05:52:23;;;;;;;38.13;22.73;;;9.70;99.90;;;;;;5072003;28;20180;-83
2021/10/08 05:54:51;;;;;;;40.33;22.40;;;9.50;99.90;;;;;;5089811;28;20164;-83
2021/10/08 05:57:17;;;;;;;36.40;22.87;;;9.50;99.90;;;;;;5079544;28;20181;-84
2021/10/08 05:59:44;;;;;;;38.20;23.73;;;9.40;99.90;;;;;;5053937;28;20193;-84
2021/10/08 06:02:16;;;;;;;45.00;24.77;;;9.40;99.90;;;;;;5049951;28;20178;-84
2021/10/08 06:04:50;;;;;;;50.77;25.27;;;9.30;99.90;;;;;;5037821;28;20268;-84
2021/10/08 06:07:22;;;;;;;59.10;27.77;;;9.30;99.90;;;;;;5054431;28;20168;-83
2021/10/08 06:10:21;;;;;;;51.83;26.90;;;9.20;99.90;;;;;;5055227;28;20247;-85
2021/10/08 06:12:47;;;;;;;59.80;27.83;;;9.20;99.90;;;;;;5054558;28;20268;-83
2021/10/08 06:15:20;;;;;;;104.27;29.97;;;9.10;99.90;;;;;;5057083;28;20269;-82
2021/10/08 06:18:09;;;;;;;69.63;26.63;;;9.10;99.90;;;;;;5053296;28;20165;-85
2021/10/08 06:20:54;;;;;;;;;;;;;;;;;;;;;
2021/10/08 06:23:35;;;;;;;55.20;25.77;;;9.00;99.90;;;;;;5054902;28;20185;-84
2021/10/08 06:26:02;;;;;;;60.20;28.70;;;9.10;99.90;;;;;;5055378;28;20204;-83
2021/10/08 06:28:28;;;;;;;62.23;29.93;;;9.00;99.90;;;;;;5055584;28;20213;-81
2021/10/08 06:30:55;;;;;;;63.87;28.93;;;9.00;99.90;;;;;;5055745;28;20181;-83
2021/10/08 06:33:26;;;;;;;58.93;29.47;;;9.00;99.90;;;;;;5054810;28;20188;-83
2021/10/08 06:35:52;;;;;;;90.43;31.13;;;9.00;99.90;;;;;;5052818;28;20191;-83
2021/10/08 06:38:18;;;;;;;76.10;29.10;;;9.00;99.90;;;;;;5053458;28;20215;-82
2021/10/08 06:40:47;;;;;;;64.03;31.27;;;9.00;99.90;;;;;;5053193;28;20173;-83
2021/10/08 06:43:19;;;;;;;96.40;30.93;;;9.00;99.90;;;;;;5053445;28;20242;-82
2021/10/08 06:45:46;;;;;;;89.23;31.57;;;9.00;99.90;;;;;;5053345;28;20207;-82
2021/10/08 06:48:12;;;;;;;77.90;31.67;;;9.00;99.90;;;;;;5053832;28;20300;-83
2021/10/08 06:50:38;;;;;;;88.60;31.37;;;9.00;99.90;;;;;;5053218;28;20609;-84
2021/10/08 06:53:05;;;;;;;87.40;33.30;;;8.90;99.90;;;;;;5051987;28;20279;-84
2021/10/08 06:55:38;;;;;;;93.97;31.60;;;9.00;99.90;;;;;;5051788;28;20181;-84
2021/10/08 06:58:05;;;;;;;127.40;34.93;;;9.00;99.90;;;;;;5052663;28;20196;-83
2021/10/08 07:00:45;;;;;;;141.07;35.23;;;9.00;99.90;;;;;;5053095;28;20176;-83
2021/10/08 07:03:14;;;;;;;124.80;33.13;;;8.90;99.90;;;;;;5054367;28;20176;-83
2021/10/08 07:05:42;;;;;;;125.17;32.90;;;8.90;99.90;;;;;;5051944;28;20173;-84
2021/10/08 07:08:08;;;;;;;138.77;33.80;;;8.90;99.90;;;;;;5051366;28;20220;-84
2021/10/08 07:10:38;;;;;;;187.97;36.53;;;8.90;99.90;;;;;;5053236;28;20177;-83
2021/10/08 07:13:05;;;;;;;158.67;35.97;;;8.90;99.90;;;;;;5053918;28;20181;-83
2021/10/08 07:15:31;;;;;;;111.33;32.50;;;8.90;99.90;;;;;;5058153;28;20184;-83
2021/10/08 07:17:57;;;;;;;77.43;34.47;;;8.90;99.90;;;;;;5059521;28;20248;-84
2021/10/08 07:20:26;;;;;;;67.23;31.80;;;9.10;99.90;;;;;;5059198;28;20232;-83
2021/10/08 07:22:55;;;;;;;51.57;33.00;;;9.10;99.90;;;;;;5058361;28;20181;-83
2021/10/08 07:25:36;;;;;;;57.17;33.60;;;9.20;99.90;;;;;;5057098;28;20180;-82
2021/10/08 07:28:25;;;;;;;52.93;31.43;;;9.40;99.90;;;;;;5056125;28;20295;-82
2021/10/08 07:30:53;;;;;;;51.27;31.17;;;9.40;99.90;;;;;;5051003;28;20212;-82
2021/10/08 07:33:19;;;;;;;62.57;31.10;;;9.50;99.90;;;;;;5055843;28;20177;-82
2021/10/08 07:35:45;;;;;;;54.10;31.43;;;9.40;99.90;;;;;;5056983;28;20173;-84
2021/10/08 07:38:11;;;;;;;53.30;33.13;;;9.40;99.90;;;;;;5056545;28;20680;-83
2021/10/08 07:40:36;;;;;;;50.53;32.10;;;9.50;99.90;;;;;;5056576;28;20169;-80
2021/10/08 07:43:03;;;;;;;48.43;31.37;;;9.50;99.90;;;;;;5056908;28;20598;-80
2021/10/08 07:45:29;;;;;;;50.00;30.97;;;9.60;99.90;;;;;;5057477;28;20645;-79
2021/10/08 07:47:54;;;;;;;48.67;30.50;;;9.50;99.90;;;;;;5056634;28;20236;-79
2021/10/08 07:50:20;;;;;;;51.60;31.70;;;9.50;99.90;;;;;;5057294;28;20546;-79
2021/10/08 07:52:46;;;;;;;48.00;30.23;;;9.50;99.90;;;;;;5057061;28;20188;-80
2021/10/08 07:55:12;;;;;;;43.83;31.13;;;9.50;99.90;;;;;;5057907;28;20644;-78
2021/10/08 07:57:38;;;;;;;47.87;30.60;;;9.60;99.90;;;;;;5057977;28;20185;-78
2021/10/08 08:00:09;;;;;;;46.63;29.70;;;9.60;99.90;;;;;;5058871;28;20260;-79
2021/10/08 08:02:35;;;;;;;45.40;28.83;;;9.50;99.90;;;;;;5055436;28;20589;-78
2021/10/08 08:05:01;;;;;;;46.30;31.73;;;9.60;99.90;;;;;;5056686;28;20276;-80
2021/10/08 08:07:26;;;;;;;40.77;30.70;;;9.60;99.90;;;;;;5056695;28;20261;-82
2021/10/08 08:09:52;;;;;;;44.00;31.47;;;9.80;99.90;;;;;;5056160;28;20644;-80
2021/10/08 08:12:18;;;;;;;47.73;29.63;;;9.90;99.90;;;;;;5055960;28;20189;-81
2021/10/08 08:14:43;;;;;;;39.23;27.90;;;9.90;99.90;;;;;;5056417;28;20199;-80
2021/10/08 08:17:09;;;;;;;36.60;28.10;;;10.10;99.90;;;;;;5056077;28;20192;-81
2021/10/08 08:19:35;;;;;;;44.60;29.77;;;10.00;99.90;;;;;;5055632;28;20168;-80
2021/10/08 08:22:01;;;;;;;43.70;30.23;;;10.00;99.90;;;;;;5054516;28;20291;-78
2021/10/08 08:24:27;;;;;;;45.10;30.03;;;10.10;99.90;;;;;;5055697;28;20593;-80
2021/10/08 08:26:52;;;;;;;44.17;29.20;;;10.10;99.90;;;;;;5055968;28;20180;-79
2021/10/08 08:29:18;;;;;;;44.80;29.70;;;10.20;99.90;;;;;;5055557;28;20212;-77
2021/10/08 08:31:44;;;;;;;46.80;29.83;;;10.30;99.90;;;;;;5055361;28;20199;-77
2021/10/08 08:34:09;;;;;;;44.80;30.20;;;10.20;99.90;;;;;;5055292;28;20177;-78
2021/10/08 08:36:35;;;;;;;46.60;30.83;;;10.10;99.90;;;;;;5054984;28;20176;-77
2021/10/08 08:39:07;;;;;;;49.23;32.67;;;10.10;99.90;;;;;;5055739;28;20185;-77
2021/10/08 08:41:33;;;;;;;40.90;28.63;;;10.50;99.90;;;;;;5054907;28;20184;-81
2021/10/08 08:43:59;;;;;;;44.30;29.93;;;10.30;99.90;;;;;;5055009;28;20189;-78
2021/10/08 08:46:24;;;;;;;42.73;30.40;;;10.40;99.90;;;;;;5055321;28;20173;-79
2021/10/08 08:48:50;;;;;;;45.03;30.60;;;10.40;99.90;;;;;;5054069;28;20259;-78
2021/10/08 08:51:16;;;;;;;43.87;31.53;;;10.60;99.90;;;;;;5055088;28;20659;-77
2021/10/08 08:53:43;;;;;;;43.63;31.03;;;10.50;99.90;;;;;;5053749;28;20196;-77
2021/10/08 08:56:09;;;;;;;45.07;31.83;;;10.70;99.90;;;;;;5055821;28;20629;-79
2021/10/08 08:58:35;;;;;;;45.87;32.60;;;10.80;99.90;;;;;;5054856;28;20263;-78
2021/10/08 09:01:03;;;;;;;45.30;32.33;;;10.90;99.90;;;;;;5055410;28;20187;-79
2021/10/08 09:03:32;;;;;;;45.00;32.27;;;11.00;99.90;;;;;;5053608;28;20195;-79
2021/10/08 09:05:57;;;;;;;45.83;31.63;;;11.00;99.90;;;;;;5055088;28;20169;-78
2021/10/08 09:08:35;;;;;;;42.30;31.00;;;11.20;99.90;;;;;;5055379;28;20224;-78
2021/10/08 09:11:05;;;;;;;44.13;32.60;;;11.40;99.90;;;;;;5069038;28;20181;-77
2021/10/08 09:13:31;;;;;;;49.07;32.63;;;11.60;99.90;;;;;;5065585;28;20203;-77
2021/10/08 09:15:58;;;;;;;46.50;33.03;;;11.70;99.90;;;;;;5059778;28;20196;-77
2021/10/08 09:18:27;;;;;;;49.73;33.80;;;11.70;99.90;;;;;;5066318;28;20185;-79
2021/10/08 09:21:06;;;;;;;45.17;33.03;;;11.70;99.90;;;;;;5062423;28;20249;-77
2021/10/08 09:23:34;;;;;;;46.90;32.60;;;11.80;99.90;;;;;;5055463;28;20585;-78
2021/10/08 09:26:02;;;;;;;44.50;33.47;;;12.00;99.90;;;;;;5056673;28;20185;-78
2021/10/08 09:28:27;;;;;;;47.20;34.20;;;12.20;99.90;;;;;;5054702;28;20220;-79
2021/10/08 09:30:54;;;;;;;41.83;32.43;;;12.40;99.90;;;;;;5054111;28;20660;-78
2021/10/08 09:33:21;;;;;;;46.47;33.30;;;12.40;99.90;;;;;;5053410;28;20192;-77
2021/10/08 09:35:51;;;;;;;43.57;30.63;;;12.50;99.90;;;;;;5054212;28;20173;-77
2021/10/08 09:38:23;;;;;;;42.17;31.30;;;12.70;99.90;;;;;;5053749;28;20180;-80
2021/10/08 09:40:51;;;;;;;45.03;32.23;;;12.70;99.90;;;;;;5055052;28;20158;-77
2021/10/08 09:43:23;;;;;;;43.77;31.83;;;12.80;99.90;;;;;;5054409;28;20231;-84
2021/10/08 09:46:19;;;;;;;45.17;30.27;;;12.80;99.90;;;;;;5055471;28;20277;-80
2021/10/08 09:48:45;;;;;;;40.13;29.00;;;12.80;99.90;;;;;;5055050;28;20561;-79
2021/10/08 09:51:13;;;;;;;39.10;29.07;;;12.90;99.90;;;;;;5054107;28;20191;-78
2021/10/08 09:53:47;;;;;;;39.20;29.07;;;13.00;99.90;;;;;;5053383;28;20173;-77
2021/10/08 09:56:35;;;;;;;42.83;29.37;;;13.10;99.90;;;;;;5053709;28;20172;-77
2021/10/08 09:59:03;;;;;;;37.27;28.83;;;13.20;99.90;;;;;;5053625;28;20702;-82
2021/10/08 10:01:35;;;;;;;40.33;28.80;;;13.20;99.90;;;;;;5054350;28;20174;-78
2021/10/08 10:04:02;;;;;;;39.10;28.53;;;13.20;99.90;;;;;;5054048;28;20172;-76
2021/10/08 10:06:28;;;;;;;40.73;29.90;;;13.30;99.90;;;;;;5053980;28;20169;-77
2021/10/08 10:08:54;;;;;;;39.00;29.63;;;13.30;99.90;;;;;;5035878;28;20587;-79
2021/10/08 10:11:23;;;;;;;45.53;29.33;;;13.30;99.90;;;;;;5053778;28;20222;-77
2021/10/08 10:13:53;;;;;;;34.93;26.07;;;13.40;99.90;;;;;;5053229;28;20173;-77
2021/10/08 10:16:20;;;;;;;38.77;26.97;;;13.40;99.90;;;;;;5053426;28;20185;-80
2021/10/08 10:18:52;;;;;;;39.90;28.67;;;13.40;99.90;;;;;;5053094;28;20552;-78
2021/10/08 10:21:30;;;;;;;35.20;26.40;;;13.50;99.90;;;;;;5056855;28;20193;-80
2021/10/08 10:23:59;;;;;;;39.57;27.40;;;13.70;99.90;;;;;;5054051;28;20261;-79
2021/10/08 10:26:33;;;;;;;35.63;26.93;;;13.70;99.90;;;;;;5053717;28;20173;-79
2021/10/08 10:29:03;;;;;;;32.80;25.53;;;14.00;99.90;;;;;;5052481;28;20204;-81
2021/10/08 10:31:32;;;;;;;35.37;25.40;;;13.90;99.80;;;;;;5053862;28;20214;-80
2021/10/08 10:34:01;;;;;;;30.37;22.57;;;14.10;99.30;;;;;;5054816;28;20215;-82
2021/10/08 10:36:29;;;;;;;28.43;20.23;;;14.10;98.70;;;;;;5053069;28;20173;-79
2021/10/08 10:39:16;;;;;;;28.30;20.13;;;14.10;98.00;;;;;;5053106;28;20173;-78
2021/10/08 10:42:00;;;;;;;24.17;18.80;;;14.20;97.30;;;;;;5054628;28;20182;-79
2021/10/08 10:44:29;;;;;;;26.67;20.00;;;14.30;97.60;;;;;;5054149;28;20246;-78
2021/10/08 10:47:23;;;;;;;29.23;20.00;;;14.30;96.90;;;;;;5053149;28;20642;-78
2021/10/08 10:50:13;;;;;;;25.10;19.37;;;14.30;96.50;;;;;;5052604;28;20262;-79
2021/10/08 10:53:00;;;;;;;23.80;19.53;;;14.40;96.50;;;;;;5053055;28;20180;-79
2021/10/08 10:55:32;;;;;;;23.27;18.43;;;14.60;96.00;;;;;;5052472;28;20230;-79
2021/10/08 10:58:03;;;;;;;24.90;19.53;;;14.80;94.60;;;;;;5053244;28;20272;-79
2021/10/08 11:00:38;;;;;;;24.53;17.73;;;14.90;93.90;;;;;;5054594;28;20185;-85
2021/10/08 11:03:08;;;;;;;23.30;18.20;;;14.90;93.50;;;;;;5054872;28;20235;-83
2021/10/08 11:05:38;;;;;;;21.90;18.00;;;15.00;93.30;;;;;;5056743;28;20577;-82
2021/10/08 11:08:24;;;;;;;21.33;16.10;;;15.00;93.90;;;;;;5056758;28;20212;-85
2021/10/08 11:11:01;;;;;;;23.73;15.90;;;15.10;92.90;;;;;;5055204;28;20596;-84
2021/10/08 11:13:32;;;;;;;21.90;16.33;;;15.20;92.30;;;;;;5054018;28;20182;-85
2021/10/08 11:16:01;;;;;;;21.80;17.37;;;15.30;92.50;;;;;;5054256;28;20212;-81
2021/10/08 11:18:43;;;;;;;20.40;14.57;;;15.40;92.10;;;;;;5053763;28;20189;-84
2021/10/08 11:21:29;;;;;;;18.73;14.73;;;15.40;91.30;;;;;;5051921;28;20581;-84
2021/10/08 11:24:20;;;;;;;22.43;16.37;;;15.40;91.40;;;;;;5062568;28;20174;-80
2021/10/08 11:26:56;;;;;;;17.07;14.00;;;15.50;91.60;;;;;;5067646;28;20190;-80
2021/10/08 11:29:22;;;;;;;15.57;13.10;;;15.50;90.20;;;;;;5057075;28;20216;-79
2021/10/08 11:32:02;;;;;;;16.47;13.87;;;15.60;88.60;;;;;;5052134;28;20543;-80
2021/10/08 11:34:28;;;;;;;14.67;13.17;;;15.60;86.10;;;;;;5053108;28;20171;-80
2021/10/08 11:37:01;;;;;;;16.37;13.93;;;15.80;86.50;;;;;;5053813;28;20252;-77
2021/10/08 11:39:28;;;;;;;18.07;13.33;;;15.90;88.50;;;;;;5052412;28;20162;-81
2021/10/08 11:42:24;;;;;;;16.03;12.83;;;15.80;84.90;;;;;;5052674;28;20169;-81
2021/10/08 11:52:55;;;;;;;13.47;11.10;;;15.70;81.90;;;;;;5053247;28;20199;-78
2021/10/08 11:55:25;;;;;;;15.13;11.27;;;15.80;79.90;;;;;;5052501;28;20169;-79
2021/10/08 11:58:07;;;;;;;13.07;11.33;;;15.90;80.00;;;;;;5054481;28;20189;-77
2021/10/08 12:00:47;;;;;;;11.60;10.27;;;15.90;77.10;;;;;;5054644;28;20185;-78
2021/10/08 12:03:21;;;;;;;11.27;10.03;;;16.00;76.70;;;;;;5056444;28;20188;-77
2021/10/08 12:05:58;;;;;;;14.33;9.97;;;16.20;74.80;;;;;;5055865;28;20649;-77
2021/10/08 12:08:36;;;;;;;11.83;9.63;;;16.00;73.20;;;;;;5055828;28;20660;-78
2021/10/08 12:11:07;;;;;;;9.00;7.77;;;16.10;75.40;;;;;;5056878;28;20272;-78
2021/10/08 12:13:54;;;;;;;10.37;8.67;;;16.20;68.10;;;;;;5057894;28;20190;-76
2021/10/08 12:16:39;;;;;;;12.60;9.63;;;16.30;66.30;;;;;;5057173;28;20184;-78
2021/10/08 12:19:08;;;;;;;11.07;9.07;;;16.30;65.60;;;;;;5057539;28;20351;-78
2021/10/08 12:21:37;;;;;;;10.60;8.30;;;16.40;65.20;;;;;;5057327;28;20559;-79
2021/10/08 12:24:11;;;;;;;9.43;8.40;;;16.40;64.50;;;;;;5058116;28;20165;-78
2021/10/08 12:26:40;;;;;;;9.10;8.10;;;16.50;61.60;;;;;;5058504;28;20181;-77
2021/10/08 12:29:11;;;;;;;10.13;8.37;;;16.50;62.80;;;;;;5056829;28;20664;-81
2021/10/08 12:32:04;;;;;;;10.33;8.40;;;16.50;61.40;;;;;;5054572;28;20662;-78
2021/10/08 12:34:46;;;;;;;11.53;9.10;;;16.60;61.40;;;;;;5056156;28;20207;-79
2021/10/08 12:37:14;;;;;;;11.53;9.27;;;16.70;65.70;;;;;;5055796;28;20180;-77
2021/10/08 12:39:56;;;;;;;12.27;9.27;;;16.80;66.10;;;;;;5055556;28;20256;-79
2021/10/08 12:42:24;;;;;;;12.33;9.27;;;16.70;65.90;;;;;;5053705;28;20191;-78
2021/10/08 12:45:01;;;;;;;9.03;8.03;;;16.80;63.90;;;;;;5053714;28;20673;-78
2021/10/08 12:47:48;;;;;;;9.60;7.90;;;16.90;60.60;;;;;;5055616;28;20176;-79
2021/10/08 12:50:23;;;;;;;11.20;8.47;;;17.10;56.90;;;;;;5057108;28;20231;-76
2021/10/08 12:52:52;;;;;;;10.90;9.80;;;17.10;58.70;;;;;;5055020;28;20670;-78
2021/10/08 12:55:29;;;;;;;10.27;8.03;;;17.00;58.70;;;;;;5055078;28;20330;-79
2021/10/08 12:58:06;;;;;;;12.30;9.70;;;17.10;57.20;;;;;;5053583;28;20203;-77
2021/10/08 13:00:49;;;;;;;9.87;8.83;;;17.10;57.50;;;;;;5053372;28;20203;-79
2021/10/08 13:03:38;;;;;;;9.90;8.57;;;17.20;55.80;;;;;;5055942;28;20281;-77
2021/10/08 13:06:25;;;;;;;12.90;9.67;;;17.10;55.50;;;;;;5053784;28;20185;-81
2021/10/08 13:09:19;;;;;;;12.37;9.03;;;17.10;61.90;;;;;;5054948;28;20215;-76
2021/10/08 13:11:47;;;;;;;12.50;9.33;;;17.20;58.00;;;;;;5057127;28;20173;-77
2021/10/08 13:14:28;;;;;;;11.60;8.93;;;17.30;58.80;;;;;;5057327;28;20173;-78
2021/10/08 13:16:54;;;;;;;12.47;9.17;;;17.30;57.30;;;;;;5054804;28;20165;-81
2021/10/08 13:19:36;;;;;;;10.00;8.80;;;17.30;56.70;;;;;;5054418;28;20207;-79
2021/10/08 13:22:03;;;;;;;12.03;7.60;;;17.40;56.60;;;;;;5054674;28;20193;-78
2021/10/08 13:24:30;;;;;;;9.93;7.70;;;17.40;52.40;;;;;;5053201;28;20176;-79
2021/10/08 13:26:58;;;;;;;10.60;8.37;;;17.30;50.60;;;;;;5054462;28;20200;-79
2021/10/08 13:29:25;;;;;;;9.23;8.13;;;17.40;54.80;;;;;;5054030;28;20678;-78
2021/10/08 13:31:51;;;;;;;8.43;7.43;;;17.40;53.60;;;;;;5054026;28;20189;-77
2021/10/08 13:34:19;;;;;;;10.57;8.40;;;17.50;52.20;;;;;;5053959;28;20558;-79
2021/10/08 13:36:44;;;;;;;11.20;8.87;;;17.40;53.70;;;;;;5055578;28;20649;-78
2021/10/08 13:39:10;;;;;;;9.23;7.83;;;17.30;57.80;;;;;;5053938;28;20187;-78
2021/10/08 13:41:36;;;;;;;10.77;8.80;;;17.20;55.60;;;;;;5053734;28;20187;-79
2021/10/08 13:44:02;;;;;;;12.67;10.13;;;17.20;58.40;;;;;;5053742;28;20199;-79
2021/10/08 13:46:28;;;;;;;12.67;10.20;;;17.10;62.10;;;;;;5054699;28;20641;-78
2021/10/08 13:48:53;;;;;;;12.30;10.40;;;17.20;63.70;;;;;;5052746;28;20301;-78
2021/10/08 13:51:19;;;;;;;13.03;10.80;;;17.40;63.00;;;;;;5053771;28;20728;-81
2021/10/08 13:53:45;;;;;;;13.47;9.57;;;17.60;61.50;;;;;;5053307;28;20316;-81
2021/10/08 13:56:13;;;;;;;14.97;11.30;;;17.60;59.30;;;;;;5053343;28;20180;-79